Linzy — SIRU — position and weather

sailwx.info

Track history (hours):
 
Tides and Currents Weather Stations Pressure Air Temp Water Temp Dewpoint Dewpoint Depression Visibility Wind Speed Wind Dir Waves Ship Positions

Linzy

Last reported at 2014-Jul-22 02:04 UTC. Time now 2014-Jul-23 16:02 UTC.
Position N 55°20' E 014°17'.

Length 15 m.

Type: Fishing. MMSI: 265507290.

Date/timePositionNaut miles runAvg speedWind from/ knotsBaromVisibWave heightAir tempDewpointWater temp
2014-Jul-22 02:04N 55°20' E 014°17'4 0.1
2014-Jul-20 17:24N 55°24' E 014°20'20 2.2
2014-Jul-20 08:33N 55°19' E 013°47'3 2.5
2014-Jul-20 07:21N 55°20' E 013°52'2 3.0
2014-Jul-20 06:32N 55°18' E 013°55'3 3.1
2014-Jul-20 05:32N 55°16' E 013°59'3 3.2
2014-Jul-20 04:32N 55°16' E 014°05'3 3.2
2014-Jul-20 03:29N 55°16' E 014°11'2 1.8
2014-Jul-20 02:33N 55°17' E 014°13'6 6.2
2014-Jul-20 01:32N 55°22' E 014°18'9 7.9
2014-Jul-20 00:25N 55°31' E 014°23'3 0.4
2014-Jul-19 18:29N 55°33' E 014°21'0 0.0
2014-Jul-19 14:23N 55°33' E 014°21'0 0.0
2014-Jul-19 13:29N 55°33' E 014°21'  
Track history (hours):
 
Tides and Currents Weather Stations Pressure Air Temp Water Temp Dewpoint Dewpoint Depression Visibility Wind Speed Wind Dir Waves Ship Positions

Linzy

Last reported at 2014-Jul-22 02:04 UTC. Time now 2014-Jul-23 16:02 UTC.
Position N 55°20' E 014°17'.

Length 15 m.

Type: Fishing. MMSI: 265507290.

Date/timePositionNaut miles runAvg speedWind from/ knotsBaromVisibWave heightAir tempDewpointWater temp
2014-Jul-22 02:04N 55°20' E 014°17'4 0.1
2014-Jul-20 17:24N 55°24' E 014°20'20 2.2
2014-Jul-20 08:33N 55°19' E 013°47'3 2.5
2014-Jul-20 07:21N 55°20' E 013°52'2 3.0
2014-Jul-20 06:32N 55°18' E 013°55'3 3.1
2014-Jul-20 05:32N 55°16' E 013°59'3 3.2
2014-Jul-20 04:32N 55°16' E 014°05'3 3.2
2014-Jul-20 03:29N 55°16' E 014°11'2 1.8
2014-Jul-20 02:33N 55°17' E 014°13'6 6.2
2014-Jul-20 01:32N 55°22' E 014°18'9 7.9
2014-Jul-20 00:25N 55°31' E 014°23'3 0.4
2014-Jul-19 18:29N 55°33' E 014°21'0 0.0
2014-Jul-19 14:23N 55°33' E 014°21'0 0.0
2014-Jul-19 13:29N 55°33' E 014°21'  

Dump ship's entire track history